sensor_id;sensor_type;location;lat;lon;timestamp;P1;durP1;ratioP1;P2;durP2;ratioP2
23406;SDS011;11876;53.438;18.942;2023-03-13T00:04:36;14.93;;;7.35;;
23406;SDS011;11876;53.438;18.942;2023-03-13T00:07:39;11.80;;;6.88;;
23406;SDS011;11876;53.438;18.942;2023-03-13T00:10:41;14.73;;;6.70;;
23406;SDS011;11876;53.438;18.942;2023-03-13T00:13:44;14.00;;;7.60;;
23406;SDS011;11876;53.438;18.942;2023-03-13T00:16:46;14.75;;;7.28;;
23406;SDS011;11876;53.438;18.942;2023-03-13T00:19:49;19.17;;;9.38;;
23406;SDS011;11876;53.438;18.942;2023-03-13T00:22:51;16.27;;;7.72;;
23406;SDS011;11876;53.438;18.942;2023-03-13T00:25:57;14.25;;;7.70;;
23406;SDS011;11876;53.438;18.942;2023-03-13T00:29:01;13.40;;;8.15;;
23406;SDS011;11876;53.438;18.942;2023-03-13T00:32:03;14.32;;;7.85;;
23406;SDS011;11876;53.438;18.942;2023-03-13T00:35:06;18.73;;;7.47;;
23406;SDS011;11876;53.438;18.942;2023-03-13T00:38:09;16.75;;;7.97;;
23406;SDS011;11876;53.438;18.942;2023-03-13T00:41:13;14.93;;;8.63;;
23406;SDS011;11876;53.438;18.942;2023-03-13T00:44:17;11.35;;;7.75;;
23406;SDS011;11876;53.438;18.942;2023-03-13T00:47:21;12.15;;;7.85;;
23406;SDS011;11876;53.438;18.942;2023-03-13T00:50:23;13.85;;;10.90;;
23406;SDS011;11876;53.438;18.942;2023-03-13T00:53:26;13.32;;;8.75;;
23406;SDS011;11876;53.438;18.942;2023-03-13T00:56:28;12.05;;;8.63;;
23406;SDS011;11876;53.438;18.942;2023-03-13T00:59:31;12.80;;;6.93;;
23406;SDS011;11876;53.438;18.942;2023-03-13T01:02:36;13.57;;;8.05;;
23406;SDS011;11876;53.438;18.942;2023-03-13T01:05:43;11.90;;;7.13;;
23406;SDS011;11876;53.438;18.942;2023-03-13T01:08:46;10.02;;;7.20;;
23406;SDS011;11876;53.438;18.942;2023-03-13T01:11:48;11.77;;;6.47;;
23406;SDS011;11876;53.438;18.942;2023-03-13T01:14:50;10.48;;;6.75;;
23406;SDS011;11876;53.438;18.942;2023-03-13T01:17:55;10.88;;;6.45;;
23406;SDS011;11876;53.438;18.942;2023-03-13T01:20:58;11.13;;;6.95;;
23406;SDS011;11876;53.438;18.942;2023-03-13T01:24:00;9.93;;;6.60;;
23406;SDS011;11876;53.438;18.942;2023-03-13T01:27:03;14.73;;;8.05;;
23406;SDS011;11876;53.438;18.942;2023-03-13T01:30:05;13.10;;;7.22;;
23406;SDS011;11876;53.438;18.942;2023-03-13T01:33:08;9.10;;;6.40;;
23406;SDS011;11876;53.438;18.942;2023-03-13T01:36:11;15.40;;;8.77;;
23406;SDS011;11876;53.438;18.942;2023-03-13T01:39:14;12.35;;;8.25;;
23406;SDS011;11876;53.438;18.942;2023-03-13T01:42:18;18.38;;;9.07;;
23406;SDS011;11876;53.438;18.942;2023-03-13T01:52:35;16.20;;;9.93;;
23406;SDS011;11876;53.438;18.942;2023-03-13T01:55:45;18.27;;;10.80;;
23406;SDS011;11876;53.438;18.942;2023-03-13T01:58:49;15.95;;;10.88;;
23406;SDS011;11876;53.438;18.942;2023-03-13T02:01:52;16.00;;;11.55;;
23406;SDS011;11876;53.438;18.942;2023-03-13T02:04:59;19.23;;;11.15;;
23406;SDS011;11876;53.438;18.942;2023-03-13T02:14:45;18.27;;;11.13;;
23406;SDS011;11876;53.438;18.942;2023-03-13T02:17:49;22.65;;;12.80;;
23406;SDS011;11876;53.438;18.942;2023-03-13T02:20:53;20.00;;;12.87;;
23406;SDS011;11876;53.438;18.942;2023-03-13T02:24:05;20.27;;;11.88;;
23406;SDS011;11876;53.438;18.942;2023-03-13T02:27:22;18.80;;;11.63;;
23406;SDS011;11876;53.438;18.942;2023-03-13T02:30:26;22.67;;;13.23;;
23406;SDS011;11876;53.438;18.942;2023-03-13T02:33:29;16.45;;;9.90;;
23406;SDS011;11876;53.438;18.942;2023-03-13T02:36:33;20.27;;;12.50;;
23406;SDS011;11876;53.438;18.942;2023-03-13T02:39:36;19.55;;;12.02;;
23406;SDS011;11876;53.438;18.942;2023-03-13T02:42:41;21.90;;;12.75;;
23406;SDS011;11876;53.438;18.942;2023-03-13T02:49:15;18.88;;;11.55;;
23406;SDS011;11876;53.438;18.942;2023-03-13T02:52:37;23.17;;;11.63;;
23406;SDS011;11876;53.438;18.942;2023-03-13T02:55:43;18.80;;;11.65;;
23406;SDS011;11876;53.438;18.942;2023-03-13T02:58:46;19.38;;;11.43;;
23406;SDS011;11876;53.438;18.942;2023-03-13T03:01:54;17.80;;;12.27;;
23406;SDS011;11876;53.438;18.942;2023-03-13T03:04:57;19.17;;;12.13;;
23406;SDS011;11876;53.438;18.942;2023-03-13T03:08:00;21.38;;;12.95;;
23406;SDS011;11876;53.438;18.942;2023-03-13T03:11:04;19.88;;;12.07;;
23406;SDS011;11876;53.438;18.942;2023-03-13T03:14:07;23.70;;;13.80;;
23406;SDS011;11876;53.438;18.942;2023-03-13T03:17:15;22.77;;;13.27;;
23406;SDS011;11876;53.438;18.942;2023-03-13T03:20:18;20.00;;;12.45;;
23406;SDS011;11876;53.438;18.942;2023-03-13T03:23:20;23.10;;;13.38;;
23406;SDS011;11876;53.438;18.942;2023-03-13T03:26:23;22.98;;;13.35;;
23406;SDS011;11876;53.438;18.942;2023-03-13T03:29:26;26.42;;;14.13;;
23406;SDS011;11876;53.438;18.942;2023-03-13T03:32:29;24.00;;;13.52;;
23406;SDS011;11876;53.438;18.942;2023-03-13T03:35:33;18.17;;;11.50;;
23406;SDS011;11876;53.438;18.942;2023-03-13T03:38:40;20.67;;;13.60;;
23406;SDS011;11876;53.438;18.942;2023-03-13T03:41:45;22.50;;;13.45;;
23406;SDS011;11876;53.438;18.942;2023-03-13T03:44:48;22.50;;;14.13;;
23406;SDS011;11876;53.438;18.942;2023-03-13T03:47:51;21.00;;;13.50;;
23406;SDS011;11876;53.438;18.942;2023-03-13T03:50:55;20.17;;;13.57;;
23406;SDS011;11876;53.438;18.942;2023-03-13T03:53:58;23.37;;;13.07;;
23406;SDS011;11876;53.438;18.942;2023-03-13T03:57:03;23.45;;;13.90;;
23406;SDS011;11876;53.438;18.942;2023-03-13T04:00:07;23.67;;;11.68;;
23406;SDS011;11876;53.438;18.942;2023-03-13T04:03:13;20.33;;;13.43;;
23406;SDS011;11876;53.438;18.942;2023-03-13T04:06:16;23.85;;;15.32;;
23406;SDS011;11876;53.438;18.942;2023-03-13T04:09:20;26.80;;;15.57;;
23406;SDS011;11876;53.438;18.942;2023-03-13T04:12:22;26.20;;;15.00;;
23406;SDS011;11876;53.438;18.942;2023-03-13T04:15:26;24.00;;;15.15;;
23406;SDS011;11876;53.438;18.942;2023-03-13T04:18:29;27.20;;;15.63;;
23406;SDS011;11876;53.438;18.942;2023-03-13T04:21:32;25.63;;;14.02;;
23406;SDS011;11876;53.438;18.942;2023-03-13T04:24:39;23.63;;;14.43;;
23406;SDS011;11876;53.438;18.942;2023-03-13T04:27:42;26.00;;;15.10;;
23406;SDS011;11876;53.438;18.942;2023-03-13T04:30:45;30.90;;;16.42;;
23406;SDS011;11876;53.438;18.942;2023-03-13T04:34:14;26.60;;;15.93;;
23406;SDS011;11876;53.438;18.942;2023-03-13T04:37:52;27.38;;;17.10;;
23406;SDS011;11876;53.438;18.942;2023-03-13T04:41:20;26.50;;;16.38;;
23406;SDS011;11876;53.438;18.942;2023-03-13T04:44:39;25.73;;;16.52;;
23406;SDS011;11876;53.438;18.942;2023-03-13T04:48:11;29.85;;;19.35;;
23406;SDS011;11876;53.438;18.942;2023-03-13T04:51:25;36.50;;;20.27;;
23406;SDS011;11876;53.438;18.942;2023-03-13T04:54:43;31.35;;;18.60;;
23406;SDS011;11876;53.438;18.942;2023-03-13T04:58:04;38.85;;;24.58;;
23406;SDS011;11876;53.438;18.942;2023-03-13T05:01:14;33.08;;;19.88;;
23406;SDS011;11876;53.438;18.942;2023-03-13T05:04:44;39.75;;;22.23;;
23406;SDS011;11876;53.438;18.942;2023-03-13T05:08:07;45.28;;;21.52;;
23406;SDS011;11876;53.438;18.942;2023-03-13T05:11:49;38.15;;;20.63;;
23406;SDS011;11876;53.438;18.942;2023-03-13T05:15:24;39.58;;;22.15;;
23406;SDS011;11876;53.438;18.942;2023-03-13T05:18:49;46.65;;;23.65;;
23406;SDS011;11876;53.438;18.942;2023-03-13T05:22:07;47.58;;;23.70;;
23406;SDS011;11876;53.438;18.942;2023-03-13T05:25:09;47.17;;;23.13;;
23406;SDS011;11876;53.438;18.942;2023-03-13T05:28:24;42.72;;;24.17;;
23406;SDS011;11876;53.438;18.942;2023-03-13T05:31:46;47.13;;;25.50;;
23406;SDS011;11876;53.438;18.942;2023-03-13T05:35:09;57.38;;;28.15;;
23406;SDS011;11876;53.438;18.942;2023-03-13T05:38:30;45.45;;;24.63;;
23406;SDS011;11876;53.438;18.942;2023-03-13T05:41:55;54.78;;;26.25;;
23406;SDS011;11876;53.438;18.942;2023-03-13T05:45:10;53.20;;;31.02;;
23406;SDS011;11876;53.438;18.942;2023-03-13T05:48:42;53.00;;;30.17;;
23406;SDS011;11876;53.438;18.942;2023-03-13T05:52:16;53.65;;;30.98;;
23406;SDS011;11876;53.438;18.942;2023-03-13T05:55:31;43.97;;;25.35;;
23406;SDS011;11876;53.438;18.942;2023-03-13T05:59:00;48.38;;;25.60;;
23406;SDS011;11876;53.438;18.942;2023-03-13T06:02:24;51.33;;;26.10;;
23406;SDS011;11876;53.438;18.942;2023-03-13T06:05:27;51.75;;;27.15;;
23406;SDS011;11876;53.438;18.942;2023-03-13T06:08:31;50.85;;;28.25;;
23406;SDS011;11876;53.438;18.942;2023-03-13T06:11:34;56.80;;;28.83;;
23406;SDS011;11876;53.438;18.942;2023-03-13T06:14:38;52.10;;;27.38;;
23406;SDS011;11876;53.438;18.942;2023-03-13T06:17:59;60.05;;;30.75;;
23406;SDS011;11876;53.438;18.942;2023-03-13T06:21:02;50.67;;;26.55;;
23406;SDS011;11876;53.438;18.942;2023-03-13T06:24:05;52.63;;;28.08;;
23406;SDS011;11876;53.438;18.942;2023-03-13T06:27:07;47.60;;;27.30;;
23406;SDS011;11876;53.438;18.942;2023-03-13T06:30:10;52.63;;;28.15;;
23406;SDS011;11876;53.438;18.942;2023-03-13T06:33:13;51.97;;;27.90;;
23406;SDS011;11876;53.438;18.942;2023-03-13T06:36:16;62.78;;;29.70;;
23406;SDS011;11876;53.438;18.942;2023-03-13T06:39:19;56.53;;;28.80;;
23406;SDS011;11876;53.438;18.942;2023-03-13T06:42:21;73.65;;;34.33;;
23406;SDS011;11876;53.438;18.942;2023-03-13T06:45:23;70.07;;;34.28;;
23406;SDS011;11876;53.438;18.942;2023-03-13T06:48:26;71.40;;;35.78;;
23406;SDS011;11876;53.438;18.942;2023-03-13T06:51:28;90.32;;;41.20;;
23406;SDS011;11876;53.438;18.942;2023-03-13T06:54:31;64.30;;;37.83;;
23406;SDS011;11876;53.438;18.942;2023-03-13T06:57:34;74.32;;;38.63;;
23406;SDS011;11876;53.438;18.942;2023-03-13T07:00:36;74.65;;;41.35;;
23406;SDS011;11876;53.438;18.942;2023-03-13T07:03:41;79.82;;;35.95;;
23406;SDS011;11876;53.438;18.942;2023-03-13T07:06:44;70.82;;;36.30;;
23406;SDS011;11876;53.438;18.942;2023-03-13T07:09:47;70.17;;;31.93;;
23406;SDS011;11876;53.438;18.942;2023-03-13T07:12:49;66.68;;;36.95;;
23406;SDS011;11876;53.438;18.942;2023-03-13T07:15:52;73.38;;;37.58;;
23406;SDS011;11876;53.438;18.942;2023-03-13T07:18:54;69.60;;;38.65;;
23406;SDS011;11876;53.438;18.942;2023-03-13T07:21:57;73.63;;;38.45;;
23406;SDS011;11876;53.438;18.942;2023-03-13T07:25:00;64.30;;;34.42;;
23406;SDS011;11876;53.438;18.942;2023-03-13T07:28:02;76.28;;;38.72;;
23406;SDS011;11876;53.438;18.942;2023-03-13T07:31:05;63.22;;;33.20;;
23406;SDS011;11876;53.438;18.942;2023-03-13T07:34:10;61.05;;;33.67;;
23406;SDS011;11876;53.438;18.942;2023-03-13T07:37:13;67.00;;;35.05;;
23406;SDS011;11876;53.438;18.942;2023-03-13T07:40:16;65.30;;;32.60;;
23406;SDS011;11876;53.438;18.942;2023-03-13T07:43:18;75.60;;;39.90;;
23406;SDS011;11876;53.438;18.942;2023-03-13T07:46:21;60.55;;;33.55;;
23406;SDS011;11876;53.438;18.942;2023-03-13T07:49:24;70.95;;;35.83;;
23406;SDS011;11876;53.438;18.942;2023-03-13T07:52:26;62.25;;;32.95;;
23406;SDS011;11876;53.438;18.942;2023-03-13T07:55:29;63.40;;;33.38;;
23406;SDS011;11876;53.438;18.942;2023-03-13T07:58:32;58.42;;;33.80;;
23406;SDS011;11876;53.438;18.942;2023-03-13T08:01:36;68.18;;;36.45;;
23406;SDS011;11876;53.438;18.942;2023-03-13T08:04:39;71.90;;;40.05;;
23406;SDS011;11876;53.438;18.942;2023-03-13T08:07:43;74.30;;;41.53;;
23406;SDS011;11876;53.438;18.942;2023-03-13T08:13:47;74.43;;;41.03;;
23406;SDS011;11876;53.438;18.942;2023-03-13T08:16:50;70.07;;;38.80;;
23406;SDS011;11876;53.438;18.942;2023-03-13T08:19:53;59.40;;;35.17;;
23406;SDS011;11876;53.438;18.942;2023-03-13T08:22:55;54.30;;;34.67;;
23406;SDS011;11876;53.438;18.942;2023-03-13T08:26:02;60.80;;;37.00;;
23406;SDS011;11876;53.438;18.942;2023-03-13T08:29:11;57.45;;;36.08;;
23406;SDS011;11876;53.438;18.942;2023-03-13T08:32:15;65.07;;;37.53;;
23406;SDS011;11876;53.438;18.942;2023-03-13T08:35:18;59.58;;;34.00;;
23406;SDS011;11876;53.438;18.942;2023-03-13T08:38:21;51.88;;;31.52;;
23406;SDS011;11876;53.438;18.942;2023-03-13T08:41:25;46.35;;;30.52;;
23406;SDS011;11876;53.438;18.942;2023-03-13T08:44:32;49.38;;;34.75;;
23406;SDS011;11876;53.438;18.942;2023-03-13T08:47:35;41.28;;;28.27;;
23406;SDS011;11876;53.438;18.942;2023-03-13T08:50:37;50.05;;;33.10;;
23406;SDS011;11876;53.438;18.942;2023-03-13T08:53:40;44.20;;;28.00;;
23406;SDS011;11876;53.438;18.942;2023-03-13T08:56:44;41.83;;;31.38;;
23406;SDS011;11876;53.438;18.942;2023-03-13T08:59:47;47.10;;;27.92;;
23406;SDS011;11876;53.438;18.942;2023-03-13T09:02:51;38.42;;;26.92;;
23406;SDS011;11876;53.438;18.942;2023-03-13T09:05:55;34.05;;;25.75;;
23406;SDS011;11876;53.438;18.942;2023-03-13T09:08:58;38.28;;;25.52;;
23406;SDS011;11876;53.438;18.942;2023-03-13T09:12:01;36.35;;;24.10;;
23406;SDS011;11876;53.438;18.942;2023-03-13T09:15:04;30.70;;;22.13;;
23406;SDS011;11876;53.438;18.942;2023-03-13T09:18:08;27.00;;;20.67;;
23406;SDS011;11876;53.438;18.942;2023-03-13T09:21:12;33.78;;;22.70;;
23406;SDS011;11876;53.438;18.942;2023-03-13T09:24:16;30.10;;;22.42;;
23406;SDS011;11876;53.438;18.942;2023-03-13T09:27:18;29.38;;;21.33;;
23406;SDS011;11876;53.438;18.942;2023-03-13T09:30:21;41.35;;;29.27;;
23406;SDS011;11876;53.438;18.942;2023-03-13T09:33:23;32.20;;;20.38;;
23406;SDS011;11876;53.438;18.942;2023-03-13T09:36:26;28.73;;;22.00;;
23406;SDS011;11876;53.438;18.942;2023-03-13T09:39:29;28.23;;;21.08;;
23406;SDS011;11876;53.438;18.942;2023-03-13T09:42:34;28.48;;;18.42;;
23406;SDS011;11876;53.438;18.942;2023-03-13T09:45:45;38.35;;;24.33;;
23406;SDS011;11876;53.438;18.942;2023-03-13T09:48:50;65.05;;;37.22;;
23406;SDS011;11876;53.438;18.942;2023-03-13T09:51:59;31.73;;;24.30;;
23406;SDS011;11876;53.438;18.942;2023-03-13T09:55:12;30.25;;;21.58;;
23406;SDS011;11876;53.438;18.942;2023-03-13T09:58:21;27.50;;;16.90;;
23406;SDS011;11876;53.438;18.942;2023-03-13T10:01:27;26.90;;;15.57;;
23406;SDS011;11876;53.438;18.942;2023-03-13T10:04:37;26.77;;;16.85;;
23406;SDS011;11876;53.438;18.942;2023-03-13T10:07:43;22.33;;;15.73;;
23406;SDS011;11876;53.438;18.942;2023-03-13T10:10:56;19.13;;;12.70;;
23406;SDS011;11876;53.438;18.942;2023-03-13T10:17:40;21.15;;;11.00;;
23406;SDS011;11876;53.438;18.942;2023-03-13T10:20:45;22.17;;;12.90;;
23406;SDS011;11876;53.438;18.942;2023-03-13T10:23:57;20.73;;;11.80;;
23406;SDS011;11876;53.438;18.942;2023-03-13T10:27:02;20.60;;;11.77;;
23406;SDS011;11876;53.438;18.942;2023-03-13T10:30:05;20.33;;;12.63;;
23406;SDS011;11876;53.438;18.942;2023-03-13T10:36:18;24.08;;;13.25;;
23406;SDS011;11876;53.438;18.942;2023-03-13T10:39:21;23.48;;;12.57;;
23406;SDS011;11876;53.438;18.942;2023-03-13T10:42:30;23.15;;;12.85;;
23406;SDS011;11876;53.438;18.942;2023-03-13T10:45:36;22.55;;;10.95;;
23406;SDS011;11876;53.438;18.942;2023-03-13T10:48:39;17.30;;;11.25;;
23406;SDS011;11876;53.438;18.942;2023-03-13T10:51:46;18.60;;;10.68;;
23406;SDS011;11876;53.438;18.942;2023-03-13T10:54:50;20.92;;;11.95;;
23406;SDS011;11876;53.438;18.942;2023-03-13T10:58:01;20.38;;;11.60;;
23406;SDS011;11876;53.438;18.942;2023-03-13T11:04:30;18.50;;;10.23;;
23406;SDS011;11876;53.438;18.942;2023-03-13T11:07:40;20.90;;;10.13;;
23406;SDS011;11876;53.438;18.942;2023-03-13T11:14:06;23.60;;;13.13;;
23406;SDS011;11876;53.438;18.942;2023-03-13T11:23:39;24.48;;;13.38;;
23406;SDS011;11876;53.438;18.942;2023-03-13T11:26:55;21.52;;;13.20;;
23406;SDS011;11876;53.438;18.942;2023-03-13T11:36:35;26.52;;;13.95;;
23406;SDS011;11876;53.438;18.942;2023-03-13T11:39:45;29.67;;;16.30;;
23406;SDS011;11876;53.438;18.942;2023-03-13T12:03:24;23.63;;;14.32;;
23406;SDS011;11876;53.438;18.942;2023-03-13T12:06:37;28.00;;;16.77;;
23406;SDS011;11876;53.438;18.942;2023-03-13T12:09:50;25.95;;;15.20;;
23406;SDS011;11876;53.438;18.942;2023-03-13T12:13:00;26.95;;;16.10;;
23406;SDS011;11876;53.438;18.942;2023-03-13T12:16:09;28.20;;;16.23;;
23406;SDS011;11876;53.438;18.942;2023-03-13T12:19:16;32.10;;;18.73;;
23406;SDS011;11876;53.438;18.942;2023-03-13T12:22:35;46.95;;;29.88;;
23406;SDS011;11876;53.438;18.942;2023-03-13T12:25:51;39.53;;;24.33;;
23406;SDS011;11876;53.438;18.942;2023-03-13T12:32:26;30.90;;;17.48;;
23406;SDS011;11876;53.438;18.942;2023-03-13T12:35:48;36.08;;;19.48;;
23406;SDS011;11876;53.438;18.942;2023-03-13T12:38:55;38.53;;;19.90;;
23406;SDS011;11876;53.438;18.942;2023-03-13T12:45:23;39.67;;;24.00;;
23406;SDS011;11876;53.438;18.942;2023-03-13T12:59:15;29.48;;;19.10;;
23406;SDS011;11876;53.438;18.942;2023-03-13T13:02:21;32.00;;;16.42;;
23406;SDS011;11876;53.438;18.942;2023-03-13T13:05:25;31.17;;;17.30;;
23406;SDS011;11876;53.438;18.942;2023-03-13T13:08:30;34.17;;;19.23;;
23406;SDS011;11876;53.438;18.942;2023-03-13T13:30:43;53.05;;;30.40;;
23406;SDS011;11876;53.438;18.942;2023-03-13T13:33:46;56.08;;;28.20;;
23406;SDS011;11876;53.438;18.942;2023-03-13T13:36:48;68.25;;;34.35;;
23406;SDS011;11876;53.438;18.942;2023-03-13T13:39:52;53.45;;;32.10;;
23406;SDS011;11876;53.438;18.942;2023-03-13T13:42:59;35.80;;;24.80;;
23406;SDS011;11876;53.438;18.942;2023-03-13T13:49:31;24.35;;;14.90;;
23406;SDS011;11876;53.438;18.942;2023-03-13T13:52:38;25.50;;;16.95;;
23406;SDS011;11876;53.438;18.942;2023-03-13T13:55:42;26.88;;;14.23;;
23406;SDS011;11876;53.438;18.942;2023-03-13T13:58:45;21.27;;;15.18;;
23406;SDS011;11876;53.438;18.942;2023-03-13T14:01:48;28.65;;;14.40;;
23406;SDS011;11876;53.438;18.942;2023-03-13T14:05:17;18.45;;;14.27;;
23406;SDS011;11876;53.438;18.942;2023-03-13T14:08:32;25.98;;;18.35;;
23406;SDS011;11876;53.438;18.942;2023-03-13T14:11:41;23.70;;;14.80;;
23406;SDS011;11876;53.438;18.942;2023-03-13T14:14:44;19.63;;;13.27;;
23406;SDS011;11876;53.438;18.942;2023-03-13T14:17:50;22.42;;;14.45;;
23406;SDS011;11876;53.438;18.942;2023-03-13T14:20:57;21.42;;;14.20;;
23406;SDS011;11876;53.438;18.942;2023-03-13T14:24:02;19.45;;;12.10;;
23406;SDS011;11876;53.438;18.942;2023-03-13T14:27:15;19.23;;;11.95;;
23406;SDS011;11876;53.438;18.942;2023-03-13T14:33:21;15.80;;;11.07;;
23406;SDS011;11876;53.438;18.942;2023-03-13T14:36:27;19.35;;;11.77;;
23406;SDS011;11876;53.438;18.942;2023-03-13T14:42:41;25.08;;;14.65;;
23406;SDS011;11876;53.438;18.942;2023-03-13T14:45:46;20.42;;;12.02;;
23406;SDS011;11876;53.438;18.942;2023-03-13T14:48:52;19.95;;;12.00;;
23406;SDS011;11876;53.438;18.942;2023-03-13T15:01:26;16.83;;;11.55;;
23406;SDS011;11876;53.438;18.942;2023-03-13T15:08:29;17.67;;;11.52;;
23406;SDS011;11876;53.438;18.942;2023-03-13T15:11:31;13.35;;;10.43;;
23406;SDS011;11876;53.438;18.942;2023-03-13T15:14:36;15.15;;;10.45;;
23406;SDS011;11876;53.438;18.942;2023-03-13T15:17:40;15.65;;;10.95;;
23406;SDS011;11876;53.438;18.942;2023-03-13T15:20:42;15.23;;;10.57;;
23406;SDS011;11876;53.438;18.942;2023-03-13T15:24:10;14.73;;;10.75;;
23406;SDS011;11876;53.438;18.942;2023-03-13T15:27:18;13.75;;;10.77;;
23406;SDS011;11876;53.438;18.942;2023-03-13T15:30:22;14.85;;;9.60;;
23406;SDS011;11876;53.438;18.942;2023-03-13T15:33:26;13.52;;;9.93;;
23406;SDS011;11876;53.438;18.942;2023-03-13T15:36:30;15.65;;;10.07;;
23406;SDS011;11876;53.438;18.942;2023-03-13T15:39:33;17.65;;;13.55;;
23406;SDS011;11876;53.438;18.942;2023-03-13T15:42:35;22.52;;;16.45;;
23406;SDS011;11876;53.438;18.942;2023-03-13T15:45:39;19.83;;;15.95;;
23406;SDS011;11876;53.438;18.942;2023-03-13T15:48:42;20.90;;;15.52;;
23406;SDS011;11876;53.438;18.942;2023-03-13T15:51:45;27.80;;;18.45;;
23406;SDS011;11876;53.438;18.942;2023-03-13T15:54:47;23.52;;;17.00;;
23406;SDS011;11876;53.438;18.942;2023-03-13T15:57:50;25.60;;;18.90;;
23406;SDS011;11876;53.438;18.942;2023-03-13T16:00:53;22.23;;;16.48;;
23406;SDS011;11876;53.438;18.942;2023-03-13T16:03:56;21.73;;;14.73;;
23406;SDS011;11876;53.438;18.942;2023-03-13T16:07:01;17.40;;;13.95;;
23406;SDS011;11876;53.438;18.942;2023-03-13T16:10:04;24.25;;;16.75;;
23406;SDS011;11876;53.438;18.942;2023-03-13T16:13:13;24.38;;;16.58;;
23406;SDS011;11876;53.438;18.942;2023-03-13T16:19:23;20.63;;;17.10;;
23406;SDS011;11876;53.438;18.942;2023-03-13T16:22:27;24.67;;;18.45;;
23406;SDS011;11876;53.438;18.942;2023-03-13T16:25:29;25.75;;;19.80;;
23406;SDS011;11876;53.438;18.942;2023-03-13T16:28:32;27.15;;;19.15;;
23406;SDS011;11876;53.438;18.942;2023-03-13T16:31:35;28.75;;;20.90;;
23406;SDS011;11876;53.438;18.942;2023-03-13T16:34:37;24.55;;;19.95;;
23406;SDS011;11876;53.438;18.942;2023-03-13T16:37:40;27.55;;;19.73;;
23406;SDS011;11876;53.438;18.942;2023-03-13T16:40:42;30.02;;;22.88;;
23406;SDS011;11876;53.438;18.942;2023-03-13T16:43:46;24.85;;;20.35;;
23406;SDS011;11876;53.438;18.942;2023-03-13T16:46:49;26.65;;;19.35;;
23406;SDS011;11876;53.438;18.942;2023-03-13T16:50:11;28.25;;;19.95;;
23406;SDS011;11876;53.438;18.942;2023-03-13T16:53:36;35.88;;;25.58;;
23406;SDS011;11876;53.438;18.942;2023-03-13T16:56:39;27.25;;;21.73;;
23406;SDS011;11876;53.438;18.942;2023-03-13T16:59:43;22.35;;;17.02;;
23406;SDS011;11876;53.438;18.942;2023-03-13T17:02:48;24.27;;;15.70;;
23406;SDS011;11876;53.438;18.942;2023-03-13T17:05:50;23.92;;;16.90;;
23406;SDS011;11876;53.438;18.942;2023-03-13T17:08:53;19.23;;;14.68;;
23406;SDS011;11876;53.438;18.942;2023-03-13T17:11:56;23.27;;;15.47;;
23406;SDS011;11876;53.438;18.942;2023-03-13T17:14:59;24.40;;;14.85;;
23406;SDS011;11876;53.438;18.942;2023-03-13T17:18:01;22.20;;;16.30;;
23406;SDS011;11876;53.438;18.942;2023-03-13T17:21:04;23.52;;;15.90;;
23406;SDS011;11876;53.438;18.942;2023-03-13T17:24:07;21.38;;;15.70;;
23406;SDS011;11876;53.438;18.942;2023-03-13T17:27:11;21.42;;;15.10;;
23406;SDS011;11876;53.438;18.942;2023-03-13T17:33:21;21.17;;;15.48;;
23406;SDS011;11876;53.438;18.942;2023-03-13T17:36:24;20.65;;;14.18;;
23406;SDS011;11876;53.438;18.942;2023-03-13T17:39:28;23.42;;;14.52;;
23406;SDS011;11876;53.438;18.942;2023-03-13T17:42:30;23.45;;;14.25;;
23406;SDS011;11876;53.438;18.942;2023-03-13T17:45:33;24.38;;;14.50;;
23406;SDS011;11876;53.438;18.942;2023-03-13T17:51:40;20.00;;;12.73;;
23406;SDS011;11876;53.438;18.942;2023-03-13T17:54:43;19.95;;;13.30;;
23406;SDS011;11876;53.438;18.942;2023-03-13T17:57:46;16.03;;;11.27;;
23406;SDS011;11876;53.438;18.942;2023-03-13T18:00:49;19.60;;;13.05;;
23406;SDS011;11876;53.438;18.942;2023-03-13T18:03:52;21.23;;;12.18;;
23406;SDS011;11876;53.438;18.942;2023-03-13T18:06:54;20.25;;;12.63;;
23406;SDS011;11876;53.438;18.942;2023-03-13T18:09:57;24.25;;;15.18;;
23406;SDS011;11876;53.438;18.942;2023-03-13T18:12:59;20.38;;;12.52;;
23406;SDS011;11876;53.438;18.942;2023-03-13T18:16:10;19.45;;;12.00;;
23406;SDS011;11876;53.438;18.942;2023-03-13T18:22:23;28.27;;;15.48;;
23406;SDS011;11876;53.438;18.942;2023-03-13T18:25:26;31.40;;;16.13;;
23406;SDS011;11876;53.438;18.942;2023-03-13T18:28:29;24.25;;;14.02;;
23406;SDS011;11876;53.438;18.942;2023-03-13T18:31:32;30.05;;;16.95;;
23406;SDS011;11876;53.438;18.942;2023-03-13T18:34:36;31.55;;;17.45;;
23406;SDS011;11876;53.438;18.942;2023-03-13T18:37:40;16.42;;;12.25;;
23406;SDS011;11876;53.438;18.942;2023-03-13T18:40:44;24.63;;;13.98;;
23406;SDS011;11876;53.438;18.942;2023-03-13T18:43:47;32.10;;;16.05;;
23406;SDS011;11876;53.438;18.942;2023-03-13T18:46:49;37.65;;;19.25;;
23406;SDS011;11876;53.438;18.942;2023-03-13T18:49:53;36.58;;;17.67;;
23406;SDS011;11876;53.438;18.942;2023-03-13T18:52:56;27.83;;;18.15;;
23406;SDS011;11876;53.438;18.942;2023-03-13T18:59:03;30.75;;;17.17;;
23406;SDS011;11876;53.438;18.942;2023-03-13T19:02:06;24.80;;;13.88;;
23406;SDS011;11876;53.438;18.942;2023-03-13T19:08:12;25.08;;;13.18;;
23406;SDS011;11876;53.438;18.942;2023-03-13T19:11:15;25.60;;;15.25;;
23406;SDS011;11876;53.438;18.942;2023-03-13T19:14:20;18.65;;;10.23;;
23406;SDS011;11876;53.438;18.942;2023-03-13T19:17:23;32.28;;;18.75;;
23406;SDS011;11876;53.438;18.942;2023-03-13T19:20:31;35.35;;;17.15;;
23406;SDS011;11876;53.438;18.942;2023-03-13T19:23:34;21.77;;;13.43;;
23406;SDS011;11876;53.438;18.942;2023-03-13T19:29:44;21.13;;;13.32;;
23406;SDS011;11876;53.438;18.942;2023-03-13T19:32:46;18.13;;;11.55;;
23406;SDS011;11876;53.438;18.942;2023-03-13T19:35:49;19.75;;;12.75;;
23406;SDS011;11876;53.438;18.942;2023-03-13T19:38:52;20.88;;;12.52;;
23406;SDS011;11876;53.438;18.942;2023-03-13T19:41:54;15.80;;;10.70;;
23406;SDS011;11876;53.438;18.942;2023-03-13T19:44:59;17.17;;;11.15;;
23406;SDS011;11876;53.438;18.942;2023-03-13T19:48:02;17.88;;;11.73;;
23406;SDS011;11876;53.438;18.942;2023-03-13T19:51:04;18.20;;;11.77;;
23406;SDS011;11876;53.438;18.942;2023-03-13T19:54:07;20.52;;;13.23;;
23406;SDS011;11876;53.438;18.942;2023-03-13T19:57:13;16.15;;;10.60;;
23406;SDS011;11876;53.438;18.942;2023-03-13T20:00:19;23.58;;;11.85;;
23406;SDS011;11876;53.438;18.942;2023-03-13T20:03:23;16.08;;;11.32;;
23406;SDS011;11876;53.438;18.942;2023-03-13T20:06:30;17.13;;;10.85;;
23406;SDS011;11876;53.438;18.942;2023-03-13T20:09:33;12.27;;;8.88;;
23406;SDS011;11876;53.438;18.942;2023-03-13T20:12:37;15.65;;;10.77;;
23406;SDS011;11876;53.438;18.942;2023-03-13T20:15:39;18.70;;;13.98;;
23406;SDS011;11876;53.438;18.942;2023-03-13T20:18:42;11.27;;;9.13;;
23406;SDS011;11876;53.438;18.942;2023-03-13T20:21:48;21.40;;;12.63;;
23406;SDS011;11876;53.438;18.942;2023-03-13T20:24:50;20.17;;;12.30;;
23406;SDS011;11876;53.438;18.942;2023-03-13T20:27:54;22.25;;;14.13;;